Airfield :
LOGIN :

Register | Disclaimer

   EN    FR    IT 

 










Legend :    VFR   Marginal VFR   IFR   Intensive IFR   Very Intensive IFR
Visi :
Ceiling :
>= 8 km
>= 3000ft
5 to 8 km
1000 to 3000 ft
1500m to 5 km
500 to 1000 ft
800 to 1500m
200 to 500 ft
< 800m
< 200 ft
Symbols :   Thunderstorms  Fog  Heavy snow  Heavy precipitations  Wind > 20 kt
SIGMETs :     Misc.  Thunderstorms  Icing  Turbulence  Mountain Waves  Volcanic Ashes







- Airport Elevation : 42 ft
- IATA code : LMO


EGQS - Lossiemouth

CURRENT METAR :
  • 262050Z 10008KT 9999 FEW022 BKN038 14/12 Q1022 BLU

EXPIRED METARs :
  • 261950Z 12012KT 9999 FEW023 BKN037 15/12 Q1022 BLU
  • 261850Z 12009KT 9999 FEW023 BKN250 14/12 Q1022 BLU

TAF TAF EGQS
Valid from the 26 at 21:00 until the 27 at 15:00 UTC


261923Z 2621/2715 12012KT 9999 FEW022
PROB30
TEMPO 2621/2715 SCT022
BECMG 2707/2710 13017G28KT
No reported NOTAMs for that airfield.



MET'MAP, your aeronautical weather chart ! - Copyright ORBIFLY December 2007 - Disclaimer

ORBIFLY MET'MAP TEAM :

Programming & Development : Alexandra Zaïnal
Concept & Development : Baudouin d'Aumeries
Co-Development & Prog : Marc-Olivier Méhu
Technical & hardware support : Manuel Goepfert

Contact : metmap@orbifly.com




SOURCES & CREDITS :

   NOAA